Terminal Aerodrome Forecast
Issued by NWS

Home | Current Version | Previous Version | Graphics & Text | Print | Product List | Glossary On
Versions: 1 2 3 4 5 6 7 8 9 10 11 12 13 14 15 16 17
835
FTUS43 KICT 241127
TAFHUT
TAF
KHUT 241127Z 2412/2512 15010KT P6SM SCT080 BKN250
     FM241400 17012G18KT P6SM VCTS SCT040CB BKN080
     FM241800 17014KT P6SM -SHRA VCTS BKN040CB
     FM250000 15010KT P6SM -SHRA VCTS BKN040CB
     FM250600 21005KT P6SM -SHRA VCTS OVC080CB
     FM250800 28004KT P6SM SHRA VCTS OVC080CB=

USA.gov is the U.S. government's official web portal to all federal, state and local government web resources and services.